Time;durP1;ratioP1;P1;durP2;ratioP2;P2;SDS_P1;SDS_P2;PMS_P1;PMS_P2;Temp;Humidity;BMP_temperature;BMP_pressure;BME280_temperature;BME280_humidity;BME280_pressure;Samples;Min_cycle;Max_cycle;Signal;HPM_P1;HPM_P2
2023/05/26 00:01:03;;;;;;;2.65;1.33;;;;;;;13.56;78.01;93995.78;5128750;27;20019;-82
2023/05/26 00:03:29;;;;;;;2.42;1.40;;;;;;;13.46;78.00;94006.91;5128751;27;20015;-82
2023/05/26 00:05:55;;;;;;;2.38;1.00;;;;;;;13.42;78.77;94006.75;5147109;27;20026;-82
2023/05/26 00:08:22;;;;;;;2.70;1.15;;;;;;;13.46;79.00;94001.53;5128773;27;20031;-82
2023/05/26 00:10:48;;;;;;;2.08;1.15;;;;;;;13.44;78.71;94003.75;5147226;27;20023;-82
2023/05/26 00:13:13;;;;;;;2.05;1.25;;;;;;;13.43;78.49;94000.31;5146898;27;20208;-82
2023/05/26 00:15:39;;;;;;;2.60;1.27;;;;;;;13.43;78.53;94016.38;5146780;27;20068;-82
2023/05/26 00:18:05;;;;;;;2.25;1.45;;;;;;;13.42;78.85;94011.34;5146880;27;20022;-83
2023/05/26 00:20:31;;;;;;;3.85;1.30;;;;;;;13.44;79.17;94004.53;5146872;27;20029;-83
2023/05/26 00:22:56;;;;;;;3.40;1.30;;;;;;;13.43;78.78;94002.19;5146537;27;20054;-83
2023/05/26 00:25:22;;;;;;;3.08;1.50;;;;;;;13.40;78.69;93997.50;5146918;27;20072;-82
2023/05/26 00:27:48;;;;;;;8.57;1.52;;;;;;;13.33;78.74;93995.34;5146684;27;20035;-82
2023/05/26 00:30:14;;;;;;;5.60;1.92;;;;;;;13.36;79.42;93992.00;5128418;27;20019;-83
2023/05/26 00:32:39;;;;;;;4.22;1.70;;;;;;;13.33;79.47;93995.34;5128162;27;20039;-83
2023/05/26 00:35:05;;;;;;;1.75;1.02;;;;;;;13.35;79.65;93986.97;5146647;27;20362;-83
2023/05/26 00:37:30;;;;;;;2.95;1.50;;;;;;;13.34;80.04;93996.91;5128348;27;20061;-84
2023/05/26 00:39:56;;;;;;;2.75;1.58;;;;;;;13.27;79.96;93988.59;5128402;27;20062;-82
2023/05/26 00:42:22;;;;;;;2.38;1.30;;;;;;;13.25;79.87;93986.25;5146424;27;20056;-82
2023/05/26 00:44:49;;;;;;;4.35;1.75;;;;;;;13.24;80.07;93983.88;5146312;27;20027;-83
2023/05/26 00:47:15;;;;;;;2.58;1.48;;;;;;;13.22;80.33;93986.09;5146614;27;20039;-84
2023/05/26 00:49:40;;;;;;;2.90;1.60;;;;;;;13.22;80.37;93992.22;5128132;27;20222;-84
2023/05/26 00:52:06;;;;;;;5.07;1.75;;;;;;;13.25;80.39;93990.81;5127805;27;20090;-83
2023/05/26 00:54:32;;;;;;;3.83;1.73;;;;;;;13.25;80.53;93996.94;5127774;27;20045;-82
2023/05/26 00:56:58;;;;;;;4.70;1.52;;;;;;;13.22;80.38;93996.81;5127718;27;20027;-82
2023/05/26 00:59:24;;;;;;;5.45;1.77;;;;;;;13.15;80.44;94002.69;5146123;27;20027;-82
2023/05/26 01:01:50;;;;;;;4.10;1.77;;;;;;;13.13;80.51;93998.78;5127779;27;20094;-82
2023/05/26 01:04:15;;;;;;;4.57;1.83;;;;;;;13.12;80.64;94000.66;5146194;27;20019;-81
2023/05/26 01:06:44;;;;;;;8.43;1.90;;;;;;;13.10;80.60;93994.84;5145681;27;20030;-81
2023/05/26 01:09:14;;;;;;;3.67;1.92;;;;;;;13.12;80.48;93999.88;5145934;27;20031;-82
2023/05/26 01:12:10;;;;;;;3.97;1.52;;;;;;;13.11;80.30;94011.66;5127585;27;20019;-81
2023/05/26 01:14:56;;;;;;;25.50;2.38;;;;;;;13.05;80.27;94006.53;5145218;27;20035;-81
2023/05/26 01:17:32;;;;;;;7.65;1.90;;;;;;;13.07;80.25;93997.38;5145599;27;20031;-81
2023/05/26 01:20:22;;;;;;;5.25;2.63;;;;;;;13.05;80.95;94008.41;5145576;27;20061;-81
2023/05/26 01:22:56;;;;;;;4.18;1.80;;;;;;;13.04;81.48;94007.59;5145586;27;20050;-81
2023/05/26 01:25:51;;;;;;;5.25;1.92;;;;;;;13.02;81.79;94004.47;5145493;27;20027;-80
2023/05/26 01:28:21;;;;;;;3.88;2.17;;;;;;;12.96;82.15;94011.13;5137308;27;20035;-81
2023/05/26 01:30:48;;;;;;;6.57;2.47;;;;;;;12.99;83.03;93999.00;5145404;27;20316;-81
2023/05/26 01:33:14;;;;;;;6.05;2.20;;;;;;;12.94;83.34;94009.88;5145402;27;20019;-82
2023/05/26 01:35:39;;;;;;;5.57;2.90;;;;;;;12.95;84.43;94000.78;5145723;27;20266;-83
2023/05/26 01:38:07;;;;;;;8.48;3.42;;;;;;;12.94;84.92;94012.56;5144902;27;20034;-82
2023/05/26 01:40:33;;;;;;;7.22;3.90;;;;;;;12.96;85.60;94015.69;5144729;27;20023;-82
2023/05/26 01:43:21;;;;;;;5.05;3.55;;;;;;;13.02;85.88;94001.03;5144628;27;20050;-83
2023/05/26 01:46:10;;;;;;;4.45;3.05;;;;;;;12.97;86.07;94004.69;5145133;27;20116;-82
2023/05/26 01:48:39;;;;;;;9.23;3.63;;;;;;;13.00;86.54;94016.63;5144482;27;20135;-81
2023/05/26 01:51:06;;;;;;;6.05;3.50;;;;;;;13.05;86.52;94003.84;5145069;27;20087;-82
2023/05/26 01:53:34;;;;;;;8.80;3.38;;;;;;;13.07;86.00;94010.75;5145045;27;20019;-84
2023/05/26 01:56:00;;;;;;;5.10;3.20;;;;;;;13.11;85.94;94012.47;5145107;27;20027;-83
2023/05/26 01:58:27;;;;;;;7.65;3.90;;;;;;;13.11;85.55;94006.31;5144907;27;20031;-82
2023/05/26 02:00:53;;;;;;;5.97;4.03;;;;;;;13.10;85.71;94010.88;5145111;27;20113;-83
2023/05/26 02:03:20;;;;;;;7.28;3.92;;;;;;;13.12;86.06;94008.66;5145053;27;20027;-83
2023/05/26 02:05:45;;;;;;;5.70;3.45;;;;;;;13.08;85.87;93999.72;5144894;27;20067;-83
2023/05/26 02:08:11;;;;;;;5.65;3.63;;;;;;;13.10;86.09;94012.78;5144830;27;20023;-81
2023/05/26 02:10:37;;;;;;;7.13;3.78;;;;;;;13.13;86.09;94002.22;5126246;27;20038;-81
2023/05/26 02:13:03;;;;;;;6.85;4.07;;;;;;;13.09;85.87;94008.53;5144739;27;20136;-81
2023/05/26 02:15:29;;;;;;;7.45;3.58;;;;;;;13.02;86.05;94015.19;5144439;27;20364;-81
2023/05/26 02:17:57;;;;;;;8.93;4.20;;;;;;;13.05;86.36;94019.13;5125495;27;20343;-80
2023/05/26 02:20:23;;;;;;;6.57;3.95;;;;;;;13.08;86.31;94004.31;5144541;27;20195;-81
2023/05/26 02:22:49;;;;;;;8.23;4.43;;;;;;;13.07;86.38;94005.41;5116534;28;20036;-81
2023/05/26 02:25:15;;;;;;;8.63;4.25;;;;;;;13.10;86.40;94007.44;5103465;28;20023;-80
2023/05/26 02:27:41;;;;;;;10.15;4.15;;;;;;;13.13;86.33;94004.13;5103328;28;20016;-80
2023/05/26 02:30:07;;;;;;;11.10;4.28;;;;;;;13.15;86.72;94002.69;5103318;28;20103;-82
2023/05/26 02:32:34;;;;;;;7.82;4.55;;;;;;;13.21;86.37;94003.28;5101944;28;20210;-84
2023/05/26 02:35:00;;;;;;;7.65;4.93;;;;;;;13.24;86.52;94010.66;5103595;28;20043;-83
2023/05/26 02:37:26;;;;;;;9.13;4.85;;;;;;;13.27;86.53;94012.69;5103304;28;20332;-83
2023/05/26 02:39:54;;;;;;;7.32;4.50;;;;;;;13.28;86.36;94006.22;5102198;28;20252;-84
2023/05/26 02:42:19;;;;;;;8.50;4.55;;;;;;;13.27;86.35;94004.66;5102313;28;20024;-82
2023/05/26 02:44:45;;;;;;;6.95;4.45;;;;;;;13.30;86.38;94006.69;5103514;28;20019;-84
2023/05/26 02:47:10;;;;;;;10.30;4.10;;;;;;;13.32;86.31;94011.72;5102135;28;20027;-82
2023/05/26 02:49:36;;;;;;;9.15;4.78;;;;;;;13.35;86.40;94006.50;5102889;28;20023;-82
2023/05/26 02:52:02;;;;;;;11.00;4.78;;;;;;;13.36;86.48;94016.09;5101943;28;20024;-84
2023/05/26 02:54:27;;;;;;;11.40;4.55;;;;;;;13.37;86.24;94012.31;5103226;28;20099;-81
2023/05/26 02:56:53;;;;;;;11.38;5.30;;;;;;;13.38;86.21;94005.84;5101888;28;20023;-83
2023/05/26 02:59:18;;;;;;;6.90;4.47;;;;;;;13.42;85.96;94011.34;5103370;28;20020;-82
2023/05/26 03:01:44;;;;;;;8.60;4.20;;;;;;;13.39;86.00;94006.63;5102110;28;20366;-80
2023/05/26 03:04:09;;;;;;;7.90;4.82;;;;;;;13.42;85.70;94017.47;5103022;28;20035;-80
2023/05/26 03:06:35;;;;;;;8.07;4.38;;;;;;;13.44;85.74;94020.59;5101531;28;20051;-81
2023/05/26 03:09:00;;;;;;;17.35;4.20;;;;;;;13.50;85.38;94020.41;5101661;28;20069;-83
2023/05/26 03:11:26;;;;;;;9.27;4.03;;;;;;;13.53;85.33;94027.78;5102904;28;20061;-81
2023/05/26 03:13:52;;;;;;;10.07;4.55;;;;;;;13.52;85.40;94031.59;5102640;28;20087;-81
2023/05/26 03:16:19;;;;;;;9.38;4.75;;;;;;;13.54;85.07;94040.09;5102853;28;20343;-82
2023/05/26 03:18:44;;;;;;;11.98;5.45;;;;;;;13.53;85.00;94044.63;5103028;28;20314;-81
2023/05/26 03:21:10;;;;;;;10.77;5.25;;;;;;;13.50;84.78;94036.50;5102849;28;20065;-81
2023/05/26 03:23:35;;;;;;;9.05;4.35;;;;;;;13.44;84.94;94044.69;5127683;28;20034;-82
2023/05/26 03:26:01;;;;;;;10.07;4.57;;;;;;;13.46;84.70;94054.31;5143477;28;20041;-81
2023/05/26 03:28:26;;;;;;;8.30;4.30;;;;;;;13.51;85.18;94056.78;5144025;27;20056;-81
2023/05/26 03:30:52;;;;;;;16.10;5.38;;;;;;;13.52;85.27;94055.69;5147935;27;20015;-81
2023/05/26 03:33:18;;;;;;;7.68;4.78;;;;;;;13.55;85.38;94052.34;5129456;27;20098;-81
2023/05/26 03:35:43;;;;;;;7.25;4.53;;;;;;;13.58;85.57;94054.38;5129406;27;20054;-81
2023/05/26 03:38:09;;;;;;;6.47;4.53;;;;;;;13.57;85.29;94055.47;5147772;27;20106;-81
2023/05/26 03:40:34;;;;;;;12.48;4.68;;;;;;;13.61;85.77;94040.31;5147635;27;20034;-81
2023/05/26 03:43:01;;;;;;;9.27;4.68;;;;;;;13.58;84.76;94049.03;5147313;27;20019;-81
2023/05/26 03:45:27;;;;;;;10.93;5.80;;;;;;;13.48;85.32;94052.88;5147573;27;20019;-80
2023/05/26 03:47:52;;;;;;;13.30;5.85;;;;;;;13.51;85.78;94049.53;5147697;27;20030;-80
2023/05/26 03:50:18;;;;;;;20.52;6.90;;;;;;;13.41;86.13;94044.56;5147385;27;20093;-84
2023/05/26 03:52:43;;;;;;;14.35;5.90;;;;;;;13.33;86.60;94056.13;5129204;27;20034;-84
2023/05/26 03:55:10;;;;;;;10.70;6.22;;;;;;;13.37;86.87;94049.00;5147439;27;20613;-82
2023/05/26 03:57:37;;;;;;;11.48;6.63;;;;;;;13.40;87.22;94051.81;5147397;27;20030;-82
2023/05/26 04:00:03;;;;;;;11.43;6.50;;;;;;;13.39;87.25;94052.94;5147172;27;20217;-82
2023/05/26 04:02:29;;;;;;;14.20;8.00;;;;;;;13.47;87.17;94047.84;5128900;27;20030;-82
2023/05/26 04:04:55;;;;;;;11.85;5.93;;;;;;;13.40;85.12;94046.47;5128858;27;20220;-82
2023/05/26 04:07:21;;;;;;;9.13;4.88;;;;;;;13.36;85.32;94045.53;5146969;27;20023;-82
2023/05/26 04:09:46;;;;;;;11.85;5.55;;;;;;;13.21;86.63;94043.44;5147162;27;20026;-81
2023/05/26 04:12:12;;;;;;;13.50;6.28;;;;;;;13.26;86.93;94040.53;5146946;27;20015;-81
2023/05/26 04:14:37;;;;;;;16.25;6.13;;;;;;;13.38;86.91;94037.97;5146807;27;20050;-81
2023/05/26 04:17:02;;;;;;;24.85;7.03;;;;;;;13.49;86.60;94040.25;5146768;27;20094;-81
2023/05/26 04:19:28;;;;;;;8.02;5.05;;;;;;;13.53;85.90;94041.19;5146845;27;20035;-82
2023/05/26 04:21:53;;;;;;;8.90;4.95;;;;;;;13.55;85.39;94042.41;5147007;27;20049;-84
2023/05/26 04:24:19;;;;;;;20.52;5.50;;;;;;;13.64;85.27;94045.03;5146952;27;20218;-84
2023/05/26 04:26:44;;;;;;;12.02;5.57;;;;;;;13.63;85.76;94043.47;5146587;27;20321;-84
2023/05/26 04:29:10;;;;;;;16.02;6.90;;;;;;;13.71;86.23;94039.94;5128528;27;20388;-84
2023/05/26 04:31:40;;;;;;;15.55;5.15;;;;;;;13.77;85.86;94043.19;5146621;27;20244;-83
2023/05/26 04:34:06;;;;;;;24.80;6.40;;;;;;;13.82;85.89;94051.81;5146399;27;20019;-83
2023/05/26 04:36:32;;;;;;;15.63;6.38;;;;;;;13.81;86.21;94039.53;5146684;27;20050;-84
2023/05/26 04:38:58;;;;;;;18.30;5.82;;;;;;;13.87;86.26;94050.06;5146669;27;20023;-84
2023/05/26 04:41:23;;;;;;;15.85;5.75;;;;;;;13.93;86.31;94048.75;5145610;27;20262;-83
2023/05/26 04:43:49;;;;;;;12.95;5.18;;;;;;;13.91;85.25;94051.75;5146507;27;20019;-83
2023/05/26 04:46:15;;;;;;;16.60;5.90;;;;;;;13.92;85.37;94052.50;5146346;27;20019;-83
2023/05/26 04:48:40;;;;;;;14.00;5.95;;;;;;;13.89;85.37;94062.00;5127831;27;20023;-83
2023/05/26 04:51:07;;;;;;;11.38;5.80;;;;;;;13.88;85.71;94048.94;5145984;27;20031;-81
2023/05/26 04:53:32;;;;;;;12.75;5.97;;;;;;;13.94;86.59;94050.28;5145911;27;20019;-85
2023/05/26 04:56:02;;;;;;;15.30;5.72;;;;;;;13.95;85.47;94049.97;5127841;27;20050;-87
2023/05/26 04:58:28;;;;;;;11.98;5.40;;;;;;;13.99;85.13;94045.50;5146133;27;20019;-84
2023/05/26 05:00:55;;;;;;;11.15;4.32;;;;;;;14.04;84.31;94047.19;5146141;27;20093;-83
2023/05/26 05:03:21;;;;;;;12.45;5.03;;;;;;;14.04;83.87;94047.19;5145983;27;20022;-84
2023/05/26 05:05:47;;;;;;;10.75;5.22;;;;;;;14.08;84.00;94058.06;5146351;27;20102;-83
2023/05/26 05:08:13;;;;;;;11.45;4.78;;;;;;;14.12;84.05;94049.00;5145830;27;20023;-82
2023/05/26 05:10:39;;;;;;;8.50;4.97;;;;;;;14.19;84.75;94041.22;5127729;27;20019;-83
2023/05/26 05:13:05;;;;;;;9.20;4.85;;;;;;;14.32;84.55;94046.63;5146000;27;20027;-85
2023/05/26 05:15:30;;;;;;;8.35;5.35;;;;;;;14.35;84.51;94035.22;5127605;27;20102;-85
2023/05/26 05:17:58;;;;;;;16.55;5.63;;;;;;;14.44;84.86;94035.91;5145638;27;20060;-85
2023/05/26 05:20:24;;;;;;;20.83;6.20;;;;;;;14.50;84.73;94042.63;5145946;27;20042;-85
2023/05/26 05:22:49;;;;;;;10.02;5.07;;;;;;;14.58;84.27;94036.41;5127890;27;20053;-83
2023/05/26 05:25:14;;;;;;;18.08;5.38;;;;;;;14.68;83.96;94042.47;5145635;27;20068;-81
2023/05/26 05:27:40;;;;;;;13.27;5.25;;;;;;;14.84;83.10;94036.09;5145697;27;20023;-83
2023/05/26 05:30:06;;;;;;;16.23;5.13;;;;;;;14.99;83.00;94041.91;5127288;27;20025;-82
2023/05/26 05:32:31;;;;;;;14.57;6.07;;;;;;;15.14;82.47;94043.13;5145285;27;20018;-82
2023/05/26 05:34:57;;;;;;;13.63;5.93;;;;;;;15.28;81.52;94032.81;5145226;27;20186;-83
2023/05/26 05:37:22;;;;;;;16.10;5.65;;;;;;;15.38;80.18;94045.78;5145447;27;20022;-82
2023/05/26 05:39:48;;;;;;;8.43;4.82;;;;;;;15.40;79.17;94040.84;5145651;27;20090;-82
2023/05/26 05:42:13;;;;;;;13.27;4.93;;;;;;;15.40;77.96;94054.28;5145221;27;20086;-84
2023/05/26 05:44:39;;;;;;;9.60;3.95;;;;;;;15.42;76.40;94049.38;5145115;27;20388;-83
2023/05/26 05:47:04;;;;;;;16.25;5.50;;;;;;;15.40;75.85;94056.19;5126945;27;20097;-82
2023/05/26 05:49:31;;;;;;;9.63;3.75;;;;;;;15.40;75.49;94062.34;5145228;27;20027;-83
2023/05/26 05:51:56;;;;;;;7.30;3.22;;;;;;;15.34;73.59;94058.31;5144006;27;20050;-84
2023/05/26 05:54:21;;;;;;;9.95;3.88;;;;;;;15.37;73.76;94063.03;5144679;27;20313;-85
2023/05/26 05:56:47;;;;;;;10.73;4.00;;;;;;;15.37;73.37;94060.34;5145240;27;20027;-83
2023/05/26 05:59:12;;;;;;;7.82;3.38;;;;;;;15.40;72.78;94051.59;5144912;27;20027;-84
2023/05/26 06:01:38;;;;;;;17.23;5.50;;;;;;;15.40;73.61;94066.94;5144545;27;20030;-82
2023/05/26 06:04:03;;;;;;;10.07;4.95;;;;;;;15.44;74.90;94057.88;5144891;27;20194;-81
2023/05/26 06:06:29;;;;;;;11.20;4.20;;;;;;;15.45;75.34;94051.38;5144780;27;20251;-87
2023/05/26 06:08:54;;;;;;;10.70;4.93;;;;;;;15.52;74.96;94053.50;5145122;27;20023;-83
2023/05/26 06:11:21;;;;;;;12.25;4.60;;;;;;;15.56;74.26;94058.97;5126763;27;20022;-83
2023/05/26 06:13:46;;;;;;;12.45;4.35;;;;;;;15.64;74.65;94048.09;5145085;27;20236;-83
2023/05/26 06:16:12;;;;;;;8.52;4.60;;;;;;;15.68;74.68;94050.88;5127296;27;20037;-88
2023/05/26 06:18:37;;;;;;;9.52;4.25;;;;;;;15.71;74.02;94060.94;5144526;27;20018;-85
2023/05/26 06:21:03;;;;;;;12.65;5.00;;;;;;;15.74;74.36;94054.16;5144298;27;20015;-83
2023/05/26 06:23:29;;;;;;;17.63;4.95;;;;;;;15.76;74.48;94063.44;5125900;27;20031;-82
2023/05/26 06:25:54;;;;;;;6.45;4.22;;;;;;;15.88;74.72;94057.25;5144298;27;20025;-84
2023/05/26 06:28:20;;;;;;;10.73;5.40;;;;;;;15.99;75.37;94055.63;5144147;27;20015;-87
2023/05/26 06:30:45;;;;;;;9.45;5.28;;;;;;;16.02;76.27;94060.31;5144411;27;20014;-84
2023/05/26 06:33:10;;;;;;;13.02;6.03;;;;;;;16.13;77.19;94071.38;5144693;27;20054;-84
2023/05/26 06:35:36;;;;;;;19.88;5.82;;;;;;;16.24;75.68;94077.03;5126289;27;20031;-83
2023/05/26 06:38:01;;;;;;;9.32;5.20;;;;;;;16.35;75.20;94072.72;5126222;27;20242;-83
2023/05/26 06:40:29;;;;;;;12.25;5.22;;;;;;;16.42;73.56;94074.81;5126649;27;20015;-84
2023/05/26 06:42:55;;;;;;;10.23;4.72;;;;;;;16.49;73.95;94069.63;5127342;27;20023;-93
2023/05/26 06:45:21;;;;;;;12.40;5.32;;;;;;;16.57;72.48;94084.84;5146850;27;20376;-90
2023/05/26 06:47:50;;;;;;;13.75;5.30;;;;;;;16.56;73.32;94072.50;5129120;27;20212;-91
2023/05/26 06:50:15;;;;;;;16.77;5.88;;;;;;;16.67;73.93;94082.75;5146375;27;20316;-86
2023/05/26 06:52:44;;;;;;;16.05;5.47;;;;;;;16.75;71.62;94073.72;5127777;27;20056;-93
2023/05/26 06:55:10;;;;;;;8.82;5.03;;;;;;;16.81;70.42;94066.97;5146385;27;20023;-89
2023/05/26 06:57:36;;;;;;;15.93;4.97;;;;;;;16.81;70.07;94056.22;5145829;27;20076;-92
2023/05/26 07:00:02;;;;;;;10.20;5.40;;;;;;;16.81;69.71;94066.97;5128861;27;20262;-92
2023/05/26 07:02:28;;;;;;;10.13;4.70;;;;;;;16.91;69.76;94077.22;5146401;27;20098;-90
2023/05/26 07:05:01;;;;;;;13.65;5.10;;;;;;;17.06;70.21;94064.91;5147507;27;20027;-92
2023/05/26 07:07:32;;;;;;;10.00;4.28;;;;;;;17.15;69.13;94064.72;5149784;27;20015;-92
2023/05/26 07:09:58;;;;;;;8.55;4.22;;;;;;;17.28;68.82;94074.28;5152212;27;20340;-92
2023/05/26 07:12:24;;;;;;;10.88;5.22;;;;;;;17.29;68.69;94067.75;5149792;27;20034;-93
2023/05/26 07:14:50;;;;;;;17.77;5.47;;;;;;;17.49;69.53;94057.03;5147249;27;20072;-91
2023/05/26 07:17:15;;;;;;;14.98;5.13;;;;;;;17.53;68.98;94068.66;5128180;28;20027;-91
2023/05/26 07:19:41;;;;;;;6.95;5.10;;;;;;;17.57;68.64;94064.13;5145496;28;20023;-89
2023/05/26 07:22:07;;;;;;;11.85;4.95;;;;;;;17.56;69.22;94057.16;5126886;28;20255;-95
2023/05/26 07:24:33;;;;;;;7.85;4.82;;;;;;;17.67;68.14;94055.50;5144926;28;20063;-91
2023/05/26 07:26:59;;;;;;;7.45;4.82;;;;;;;17.69;68.65;94064.00;5145335;28;20019;-92
2023/05/26 07:29:25;;;;;;;17.15;5.10;;;;;;;17.84;68.27;94057.78;5146060;28;20022;-86
2023/05/26 07:31:50;;;;;;;14.02;5.97;;;;;;;17.98;68.19;94059.22;5143987;28;20019;-84
2023/05/26 07:34:15;;;;;;;15.48;6.32;;;;;;;18.14;68.35;94062.63;5125430;28;20343;-82
2023/05/26 07:36:41;;;;;;;12.15;5.97;;;;;;;18.29;67.29;94065.59;5143748;28;20317;-83
2023/05/26 07:39:06;;;;;;;19.60;6.63;;;;;;;18.46;66.85;94065.16;5143648;28;20026;-83
2023/05/26 07:41:32;;;;;;;13.48;6.30;;;;;;;18.54;66.64;94066.84;5143943;28;20023;-86
2023/05/26 07:43:57;;;;;;;9.65;5.07;;;;;;;18.51;65.07;94059.47;5144428;28;20064;-86
2023/05/26 07:46:23;;;;;;;14.00;5.82;;;;;;;18.68;63.90;94060.13;5142357;28;20034;-83
2023/05/26 07:48:48;;;;;;;27.75;7.75;;;;;;;18.72;63.75;94066.38;5141423;28;20124;-83
2023/05/26 07:51:14;;;;;;;14.43;5.95;;;;;;;18.76;65.28;94057.19;5140968;28;20047;-84
2023/05/26 07:53:40;;;;;;;14.57;6.40;;;;;;;18.86;65.54;94058.53;5141462;28;20084;-84
2023/05/26 07:56:06;;;;;;;13.07;5.68;;;;;;;18.95;64.37;94058.28;5140126;28;20324;-84
2023/05/26 07:58:31;;;;;;;16.05;6.15;;;;;;;18.94;65.20;94056.75;5120595;28;20027;-84
2023/05/26 08:00:57;;;;;;;13.80;5.93;;;;;;;19.15;64.81;94053.59;5139695;28;20305;-84
2023/05/26 08:03:22;;;;;;;16.25;7.50;;;;;;;19.32;64.65;94053.09;5139420;28;20027;-84
2023/05/26 08:05:48;;;;;;;14.75;7.43;;;;;;;19.43;63.76;94050.56;5139902;28;20030;-84
2023/05/26 08:08:13;;;;;;;11.57;7.05;;;;;;;19.44;64.05;94052.13;5140000;28;20030;-84
2023/05/26 08:10:39;;;;;;;15.32;7.57;;;;;;;19.50;63.51;94058.78;5122448;28;20649;-84
2023/05/26 08:13:05;;;;;;;14.40;6.70;;;;;;;19.40;62.65;94048.59;5141449;28;20035;-84
2023/05/26 08:15:30;;;;;;;12.13;6.25;;;;;;;19.31;62.18;94054.22;5142930;27;20018;-84
2023/05/26 08:17:56;;;;;;;10.18;6.13;;;;;;;19.46;62.05;94049.84;5146359;27;20330;-84
2023/05/26 08:20:21;;;;;;;13.65;7.20;;;;;;;19.63;62.61;94048.50;5146315;27;20019;-84
2023/05/26 08:22:47;;;;;;;18.25;8.23;;;;;;;19.76;62.78;94051.78;5127792;27;20114;-83
2023/05/26 08:25:12;;;;;;;18.60;9.25;;;;;;;19.88;62.52;94054.28;5146327;27;20022;-84
2023/05/26 08:27:38;;;;;;;18.67;8.38;;;;;;;19.99;62.24;94043.59;5146160;27;20064;-84
2023/05/26 08:30:05;;;;;;;17.08;8.57;;;;;;;19.93;61.19;94045.06;5145960;27;20022;-84
2023/05/26 08:32:30;;;;;;;14.02;8.57;;;;;;;20.06;61.18;94040.19;5145751;27;20312;-84
2023/05/26 08:34:56;;;;;;;16.30;9.30;;;;;;;20.07;60.72;94033.63;5145617;27;20015;-83
2023/05/26 08:37:21;;;;;;;16.30;8.35;;;;;;;20.02;59.95;94032.81;5127442;27;20019;-83
2023/05/26 08:39:47;;;;;;;12.77;6.65;;;;;;;19.98;57.95;94023.09;5146196;27;20019;-84
2023/05/26 08:42:15;;;;;;;14.73;7.13;;;;;;;20.06;58.30;94027.44;5127492;27;20047;-84
2023/05/26 08:44:43;;;;;;;13.70;7.30;;;;;;;20.11;59.04;94012.81;5145504;27;20102;-87
2023/05/26 08:47:11;;;;;;;11.45;6.18;;;;;;;20.27;58.20;94026.91;5145971;27;20011;-83
2023/05/26 08:49:41;;;;;;;12.15;6.25;;;;;;;20.40;58.33;94030.13;5127088;27;20011;-86
2023/05/26 08:52:13;;;;;;;10.65;5.00;;;;;;;20.50;56.81;94026.75;5145542;27;20213;-83
2023/05/26 08:54:39;;;;;;;13.10;4.93;;;;;;;20.68;55.79;94040.50;5145597;27;20026;-83
2023/05/26 08:57:06;;;;;;;10.95;4.90;;;;;;;20.90;54.72;94040.69;5145425;27;20098;-83
2023/05/26 08:59:32;;;;;;;9.85;4.55;;;;;;;20.92;53.92;94041.09;5145344;27;20026;-84
2023/05/26 09:01:58;;;;;;;12.05;5.25;;;;;;;21.09;54.53;94031.56;5145449;27;20019;-83
2023/05/26 09:04:25;;;;;;;13.85;5.75;;;;;;;21.20;55.26;94041.31;5145237;27;20042;-84
2023/05/26 09:06:51;;;;;;;12.13;4.40;;;;;;;21.25;53.09;94034.78;5145375;27;20029;-83
2023/05/26 09:09:17;;;;;;;9.50;4.25;;;;;;;21.42;51.80;94023.28;5145598;27;20038;-83
2023/05/26 09:11:43;;;;;;;9.50;4.00;;;;;;;21.54;51.29;94016.00;5144712;27;20094;-83
2023/05/26 09:14:14;;;;;;;9.13;3.63;;;;;;;21.64;51.50;94020.72;5144667;27;20026;-84
2023/05/26 09:16:40;;;;;;;13.82;5.35;;;;;;;21.61;53.27;94013.31;5127211;27;20064;-84
2023/05/26 09:19:06;;;;;;;22.27;5.97;;;;;;;21.72;55.76;94013.41;5145266;27;20026;-84
2023/05/26 09:21:32;;;;;;;12.48;5.90;;;;;;;21.88;55.51;94013.06;5145106;27;20022;-84
2023/05/26 09:23:59;;;;;;;13.23;5.32;;;;;;;22.01;53.84;94008.88;5144848;27;20031;-84
2023/05/26 09:26:28;;;;;;;8.98;3.90;;;;;;;22.28;52.02;94011.31;5144669;27;20018;-84
2023/05/26 09:28:54;;;;;;;9.32;3.50;;;;;;;22.62;50.71;94017.19;5144680;27;20235;-84
2023/05/26 09:31:20;;;;;;;13.13;4.50;;;;;;;22.96;51.65;94020.34;5126565;27;20019;-84
2023/05/26 09:33:48;;;;;;;13.57;4.90;;;;;;;23.22;50.49;94013.75;5145029;27;20107;-84
2023/05/26 09:36:17;;;;;;;10.52;4.55;;;;;;;23.41;49.70;94028.88;5126060;27;20060;-84
2023/05/26 09:38:43;;;;;;;9.55;4.32;;;;;;;23.70;48.62;94025.34;5145622;27;20023;-84
2023/05/26 09:41:09;;;;;;;16.80;5.30;;;;;;;23.95;48.32;94023.34;5144294;27;20026;-84
2023/05/26 09:43:36;;;;;;;9.40;5.35;;;;;;;24.05;47.73;94020.97;5144538;27;20261;-83
2023/05/26 09:46:06;;;;;;;9.80;5.03;;;;;;;24.25;47.28;94013.13;5144836;27;20023;-84
2023/05/26 09:48:36;;;;;;;10.02;4.70;;;;;;;24.32;46.80;94011.13;5144378;27;20034;-83
2023/05/26 09:51:03;;;;;;;7.53;4.22;;;;;;;24.33;46.09;94009.94;5144626;27;20042;-86
2023/05/26 09:53:28;;;;;;;10.88;4.55;;;;;;;24.52;44.50;94013.38;5144410;27;20081;-83
2023/05/26 09:55:56;;;;;;;9.07;4.20;;;;;;;24.62;45.00;94018.75;5144370;27;20022;-84
2023/05/26 09:58:24;;;;;;;7.20;4.15;;;;;;;24.69;44.32;94017.97;5144268;27;20019;-85
2023/05/26 10:00:53;;;;;;;7.35;4.00;;;;;;;24.70;44.94;94018.72;5144621;27;20023;-85
2023/05/26 10:03:21;;;;;;;8.68;4.75;;;;;;;24.71;44.40;94014.81;5144379;27;20026;-84
2023/05/26 10:05:48;;;;;;;14.07;4.70;;;;;;;24.62;45.43;94026.94;5126162;27;20030;-84
2023/05/26 10:08:17;;;;;;;9.50;4.22;;;;;;;24.39;44.98;94023.94;5143715;27;20015;-84
2023/05/26 10:10:44;;;;;;;12.38;4.57;;;;;;;24.14;46.62;94016.66;5144203;27;20026;-84
2023/05/26 10:13:10;;;;;;;11.70;4.68;;;;;;;24.19;47.38;94024.41;5143961;27;20019;-87
2023/05/26 10:15:36;;;;;;;11.48;4.95;;;;;;;24.11;48.29;94022.88;5144197;27;20019;-87
2023/05/26 10:18:02;;;;;;;12.20;5.88;;;;;;;23.87;49.93;94023.75;5143942;27;20022;-85
2023/05/26 10:20:29;;;;;;;16.17;5.45;;;;;;;23.39;50.75;94017.63;5143795;27;20053;-83
2023/05/26 10:23:35;;;;;;;12.07;6.90;;;;;;;22.65;55.28;94021.84;5143769;27;20198;-83
2023/05/26 10:26:07;;;;;;;15.57;6.15;;;;;;;22.05;58.06;94031.38;5143159;27;20099;-83
2023/05/26 10:28:40;;;;;;;;;;;;;;;21.59;57.26;94029.19;5125874;27;20064;-83
2023/05/26 10:31:05;;;;;;;11.50;4.20;;;;;;;21.14;55.90;94023.06;5143528;27;19903;-83
2023/05/26 10:33:42;;;;;;;12.77;4.78;;;;;;;20.76;57.32;94019.66;5125309;27;20329;-83
2023/05/26 10:36:17;;;;;;;5.30;3.13;;;;;;;20.58;56.10;94024.91;5143274;27;20029;-84
2023/05/26 10:39:07;;;;;;;9.57;3.33;;;;;;;20.50;56.25;94023.28;5125019;27;20232;-85
2023/05/26 10:41:39;;;;;;;5.10;2.70;;;;;;;20.57;54.16;94031.47;5132089;27;20031;-85
2023/05/26 10:44:05;;;;;;;6.97;2.90;;;;;;;20.53;51.85;94020.59;5143617;27;20019;-86
2023/05/26 10:46:44;;;;;;;8.48;3.58;;;;;;;20.56;52.83;94016.38;5125377;27;20262;-85
2023/05/26 10:49:23;;;;;;;10.45;2.45;;;;;;;20.33;50.22;94014.59;5143852;27;20023;-86
2023/05/26 10:51:51;;;;;;;7.70;3.88;;;;;;;20.43;53.14;94010.44;5143622;27;20058;-86
2023/05/26 10:54:21;;;;;;;5.85;3.05;;;;;;;20.49;52.44;94019.78;5143685;27;20056;-85
2023/05/26 10:56:49;;;;;;;10.60;3.13;;;;;;;20.49;53.86;94011.66;5143562;27;20069;-85
2023/05/26 10:59:35;;;;;;;14.93;3.75;;;;;;;20.47;57.07;94018.59;5142739;27;20027;-85
2023/05/26 11:02:06;;;;;;;6.45;3.08;;;;;;;20.58;58.48;94008.66;5143112;27;20038;-84
2023/05/26 11:04:46;;;;;;;7.82;3.00;;;;;;;20.81;60.14;94008.50;5143243;27;20027;-84
2023/05/26 11:07:26;;;;;;;6.05;2.97;;;;;;;20.99;62.37;94006.72;5143021;27;20241;-84
2023/05/26 11:10:05;;;;;;;5.60;3.20;;;;;;;21.12;61.42;94009.13;5143098;27;20019;-87
2023/05/26 11:12:47;;;;;;;5.10;3.30;;;;;;;21.21;62.18;94001.44;5142957;27;20377;-86
2023/05/26 11:15:28;;;;;;;6.28;3.08;;;;;;;21.03;59.13;94004.81;5143042;27;20041;-83
2023/05/26 11:18:01;;;;;;;4.95;3.03;;;;;;;20.82;57.79;94004.63;5142788;27;20019;-84
2023/05/26 11:20:26;;;;;;;6.45;2.85;;;;;;;20.73;55.38;94010.34;5142829;28;20015;-84
2023/05/26 11:22:52;;;;;;;4.65;2.92;;;;;;;20.72;54.36;93998.00;5142679;28;20038;-85
2023/05/26 11:25:18;;;;;;;5.55;2.92;;;;;;;20.76;55.71;93993.38;5143091;28;20071;-84
2023/05/26 11:27:47;;;;;;;6.57;3.83;;;;;;;20.90;57.73;93995.41;5142775;28;20041;-83
2023/05/26 11:30:13;;;;;;;7.20;3.28;;;;;;;21.03;56.95;93985.06;5142241;28;20043;-84